Terminal Aerodrome Forecast
Issued by NWS Duluth, MN

Home | Current Version | Previous Version | Text Only | Print | Product List | Glossary On
Versions: 1 2 3 4 5 6 7 8 9 10 11 12 13 14 15 16
000
FTUS43 KDLH 230500
TAFINL
TAF
KINL 230520Z 2306/2406 VRB03KT P6SM FEW250
     FM231500 14010KT P6SM BKN250
     FM231900 13012G19KT P6SM BKN150
     FM240400 12009KT 6SM -RA OVC025=

USA.gov is the U.S. government's official web portal to all federal, state and local government web resources and services.